createdAt,value
2017-06-18T00:00:55.147Z,101456.12
2017-06-18T00:03:21.975Z,101462.49
2017-06-18T00:05:48.737Z,101460.97
2017-06-18T00:08:15.597Z,101461.77
2017-06-18T00:10:42.349Z,101457.48
2017-06-18T00:13:09.068Z,101464.05
2017-06-18T00:15:35.800Z,101466.26
2017-06-18T00:18:02.573Z,101467.69
2017-06-18T00:20:29.294Z,101465.96
2017-06-18T00:22:56.020Z,101458.91
2017-06-18T00:25:22.745Z,101459.84
2017-06-18T00:27:49.469Z,101460.82
2017-06-18T00:30:16.234Z,101464.56
2017-06-18T00:32:42.985Z,101466.78
2017-06-18T00:35:09.869Z,101465.03
2017-06-18T00:37:36.598Z,101464.20
2017-06-18T00:40:03.470Z,101468.00
2017-06-18T00:42:30.216Z,101470.07
2017-06-18T00:44:56.941Z,101469.70
2017-06-18T00:47:23.731Z,101473.73
2017-06-18T00:49:50.432Z,101472.38
2017-06-18T00:52:17.161Z,101472.73
2017-06-18T00:54:43.988Z,101473.58
2017-06-18T00:57:10.704Z,101474.41
2017-06-18T00:59:37.454Z,101469.30
2017-06-18T01:02:04.211Z,101471.55
2017-06-18T01:04:31.049Z,101471.42
2017-06-18T01:06:57.800Z,101472.72
2017-06-18T01:09:24.552Z,101469.11
2017-06-18T01:11:51.363Z,101474.39
2017-06-18T01:14:18.089Z,101476.95
2017-06-18T01:16:44.824Z,101478.59
2017-06-18T01:19:11.553Z,101476.98
2017-06-18T01:21:38.278Z,101480.74
2017-06-18T01:24:05.020Z,101485.44
2017-06-18T01:26:31.781Z,101479.77
2017-06-18T01:28:58.486Z,101477.30
2017-06-18T01:31:25.222Z,101482.91
2017-06-18T01:33:52.055Z,101487.31
2017-06-18T01:36:18.806Z,101481.84
2017-06-18T01:38:45.577Z,101488.42
2017-06-18T01:41:12.466Z,101481.56
2017-06-18T01:43:39.323Z,101480.75
2017-06-18T01:46:06.206Z,101487.04
2017-06-18T01:48:32.940Z,101480.20
2017-06-18T01:50:59.691Z,101473.37
2017-06-18T01:53:26.430Z,101473.86
2017-06-18T01:55:53.176Z,101478.39
2017-06-18T01:58:19.917Z,101471.83
2017-06-18T02:00:46.657Z,101473.55
2017-06-18T02:03:13.458Z,101464.34
2017-06-18T02:05:40.278Z,101466.53
2017-06-18T02:08:07.045Z,101469.23
2017-06-18T02:10:33.817Z,101471.52
2017-06-18T02:13:00.566Z,101479.50
2017-06-18T02:15:27.317Z,101477.55
2017-06-18T02:17:54.110Z,101475.28
2017-06-18T02:20:20.832Z,101479.74
2017-06-18T02:22:47.532Z,101478.73
2017-06-18T02:25:14.271Z,101481.28
2017-06-18T02:27:40.985Z,101480.84
2017-06-18T02:30:07.733Z,101485.59
2017-06-18T02:32:34.457Z,101482.07
2017-06-18T02:35:01.225Z,101479.07
2017-06-18T02:37:27.950Z,101485.47
2017-06-18T02:39:54.665Z,101492.25
2017-06-18T02:42:21.385Z,101484.28
2017-06-18T02:44:48.114Z,101477.56
2017-06-18T02:47:14.889Z,101489.57
2017-06-18T02:49:41.595Z,101484.45
2017-06-18T02:52:08.366Z,101485.34
2017-06-18T02:54:35.105Z,101487.13
2017-06-18T02:57:01.821Z,101480.85
2017-06-18T02:59:28.565Z,101480.14
2017-06-18T03:01:55.293Z,101481.43
2017-06-18T03:04:22.045Z,101480.45
2017-06-18T03:06:48.868Z,101484.39
2017-06-18T03:09:15.674Z,101485.77
2017-06-18T03:11:42.406Z,101489.08
2017-06-18T03:14:09.197Z,101492.33
2017-06-18T03:16:35.973Z,101486.95
2017-06-18T03:19:02.678Z,101489.83
2017-06-18T03:21:50.355Z,101499.86
2017-06-18T03:24:34.632Z,101494.37
2017-06-18T03:27:04.361Z,101487.89
2017-06-18T03:29:34.140Z,101496.84
2017-06-18T03:32:03.995Z,101491.29
2017-06-18T03:34:33.695Z,101497.52
2017-06-18T03:37:04.518Z,101508.92
2017-06-18T03:39:35.221Z,101503.82
2017-06-18T03:42:04.941Z,101507.50
2017-06-18T03:44:34.652Z,101507.34
2017-06-18T03:47:04.383Z,101513.66
2017-06-18T03:49:34.118Z,101514.14
2017-06-18T03:52:03.812Z,101503.77
2017-06-18T03:54:33.553Z,101510.55
2017-06-18T03:57:03.240Z,101512.77
2017-06-18T03:59:33.021Z,101505.23
2017-06-18T04:02:03.477Z,101507.91
2017-06-18T04:04:33.215Z,101507.82
2017-06-18T04:07:02.924Z,101509.34
2017-06-18T04:09:32.730Z,101505.55
2017-06-18T04:12:02.465Z,101512.28
2017-06-18T04:14:32.195Z,101506.59
2017-06-18T04:17:02.806Z,101503.55
2017-06-18T04:19:32.515Z,101510.29
2017-06-18T04:22:02.262Z,101505.98
2017-06-18T04:24:31.995Z,101506.23
2017-06-18T04:27:01.738Z,101514.08
2017-06-18T04:29:31.501Z,101506.55
2017-06-18T04:32:01.193Z,101512.23
2017-06-18T04:34:31.810Z,101515.53
2017-06-18T04:37:01.520Z,101517.01
2017-06-18T04:39:32.154Z,101518.59
2017-06-18T04:42:01.885Z,101529.66
2017-06-18T04:44:31.583Z,101525.91
2017-06-18T04:47:01.336Z,101529.33
2017-06-18T04:49:31.111Z,101529.20
2017-06-18T04:52:01.763Z,101528.44
2017-06-18T04:54:31.500Z,101527.31
2017-06-18T04:57:01.253Z,101525.78
2017-06-18T04:59:31.857Z,101526.93
2017-06-18T05:02:01.591Z,101522.31
2017-06-18T05:04:31.329Z,101526.81
2017-06-18T05:07:01.049Z,101526.72
2017-06-18T05:09:30.784Z,101526.97
2017-06-18T05:12:01.857Z,101529.92
2017-06-18T05:14:32.187Z,101532.80
2017-06-18T05:17:02.377Z,101529.43
2017-06-18T05:19:32.216Z,101536.36
2017-06-18T05:22:01.965Z,101534.80
2017-06-18T05:24:31.666Z,101537.58
2017-06-18T05:27:01.393Z,101543.75
2017-06-18T05:29:31.123Z,101544.40
2017-06-18T05:32:00.867Z,101539.18
2017-06-18T05:34:30.557Z,101538.30
2017-06-18T05:37:00.240Z,101534.98
2017-06-18T05:39:30.871Z,101537.45
2017-06-18T05:42:00.614Z,101539.04
2017-06-18T05:44:31.193Z,101544.06
2017-06-18T05:47:00.939Z,101542.61
2017-06-18T05:49:30.665Z,101543.02
2017-06-18T05:52:00.400Z,101538.11
2017-06-18T05:54:30.167Z,101534.90
2017-06-18T05:56:59.937Z,101542.13
2017-06-18T05:59:29.713Z,101541.97
2017-06-18T06:01:59.416Z,101539.59
2017-06-18T06:04:29.170Z,101541.89
2017-06-18T06:06:58.882Z,101537.00
2017-06-18T06:09:28.610Z,101534.98
2017-06-18T06:11:58.346Z,101536.62
2017-06-18T06:14:32.125Z,101534.31
2017-06-18T06:17:01.893Z,101532.47
2017-06-18T06:19:32.526Z,101532.88
2017-06-18T06:22:02.281Z,101529.93
2017-06-18T06:24:32.041Z,101528.92
2017-06-18T06:27:02.113Z,101526.77
2017-06-18T06:29:31.843Z,101530.08
2017-06-18T06:32:01.553Z,101530.34
2017-06-18T06:34:31.297Z,101528.68
2017-06-18T06:37:01.037Z,101530.83
2017-06-18T06:39:30.789Z,101540.91
2017-06-18T06:42:00.504Z,101540.50
2017-06-18T06:44:30.223Z,101537.90
2017-06-18T06:46:59.938Z,101537.48
2017-06-18T06:49:29.625Z,101549.77
2017-06-18T06:51:59.343Z,101545.50
2017-06-18T06:54:29.044Z,101546.02
2017-06-18T06:56:58.793Z,101555.34
2017-06-18T06:59:28.893Z,101551.49
2017-06-18T07:01:58.658Z,101552.08
2017-06-18T07:04:28.381Z,101552.70
2017-06-18T07:06:58.117Z,101558.26
2017-06-18T07:09:27.930Z,101549.93
2017-06-18T07:11:58.455Z,101555.60
2017-06-18T07:14:28.216Z,101558.41
2017-06-18T07:16:57.908Z,101553.95
2017-06-18T07:19:27.668Z,101553.67
2017-06-18T07:21:57.366Z,101550.22
2017-06-18T07:24:27.103Z,101551.72
2017-06-18T07:26:56.865Z,101550.66
2017-06-18T07:29:26.571Z,101557.89
2017-06-18T07:31:56.495Z,101559.81
2017-06-18T07:34:26.281Z,101559.59
2017-06-18T07:36:56.068Z,101558.64
2017-06-18T07:39:25.840Z,101558.20
2017-06-18T07:41:55.574Z,101561.25
2017-06-18T07:44:25.384Z,101560.43
2017-06-18T07:46:55.155Z,101564.45
2017-06-18T07:49:24.909Z,101561.89
2017-06-18T07:51:54.673Z,101562.96
2017-06-18T07:54:24.411Z,101557.52
2017-06-18T07:56:54.141Z,101557.20
2017-06-18T07:59:23.838Z,101557.34
2017-06-18T08:01:53.564Z,101552.28
2017-06-18T08:04:23.299Z,101552.83
2017-06-18T08:06:53.034Z,101549.41
2017-06-18T08:09:22.727Z,101542.22
2017-06-18T08:11:52.496Z,101548.80
2017-06-18T08:14:22.253Z,101545.97
2017-06-18T08:16:51.999Z,101551.98
2017-06-18T08:19:21.738Z,101554.17
2017-06-18T08:21:51.447Z,101550.34
2017-06-18T08:24:21.221Z,101551.58
2017-06-18T08:26:50.946Z,101547.62
2017-06-18T08:29:20.729Z,101535.94
2017-06-18T08:31:50.465Z,101531.38
2017-06-18T08:34:20.188Z,101525.16
2017-06-18T08:36:49.942Z,101517.53
2017-06-18T08:39:19.473Z,101519.66
2017-06-18T08:41:49.206Z,101524.66
2017-06-18T08:44:18.918Z,101527.35
2017-06-18T08:46:48.678Z,101520.29
2017-06-18T08:49:18.408Z,101526.53
2017-06-18T08:51:47.951Z,101521.69
2017-06-18T08:54:17.697Z,101523.39
2017-06-18T08:56:47.421Z,101523.91
2017-06-18T08:59:17.233Z,101523.70
2017-06-18T09:01:46.962Z,101527.91
2017-06-18T09:04:16.766Z,101528.56
2017-06-18T09:06:55.047Z,101521.13
2017-06-18T09:09:24.984Z,101527.09
2017-06-18T09:11:55.616Z,101524.02
2017-06-18T09:14:25.363Z,101523.22
2017-06-18T09:16:55.193Z,101520.29
2017-06-18T09:19:24.914Z,101523.80
2017-06-18T09:21:54.720Z,101528.39
2017-06-18T09:24:24.452Z,101531.08
2017-06-18T09:26:54.226Z,101527.19
2017-06-18T09:29:23.998Z,101523.80
2017-06-18T09:31:53.724Z,101519.88
2017-06-18T09:34:23.526Z,101524.47
2017-06-18T09:36:53.252Z,101525.05
2017-06-18T09:39:22.805Z,101520.55
2017-06-18T09:41:52.605Z,101517.05
2017-06-18T09:44:22.347Z,101516.51
2017-06-18T09:46:52.128Z,101521.66
2017-06-18T09:49:21.876Z,101515.02
2017-06-18T09:51:51.680Z,101516.33
2017-06-18T09:54:21.416Z,101520.38
2017-06-18T09:56:51.172Z,101517.71
2017-06-18T09:59:20.917Z,101524.16
2017-06-18T10:01:50.650Z,101515.58
2017-06-18T10:04:20.393Z,101508.81
2017-06-18T10:06:50.127Z,101511.99
2017-06-18T10:09:19.902Z,101504.27
2017-06-18T10:11:50.475Z,101511.08
2017-06-18T10:14:20.267Z,101502.69
2017-06-18T10:16:49.987Z,101501.90
2017-06-18T10:19:19.729Z,101497.59
2017-06-18T10:22:06.977Z,101493.08
2017-06-18T10:35:09.239Z,101507.27
2017-06-18T10:37:38.973Z,101504.08
2017-06-18T10:40:08.706Z,101499.91
2017-06-18T10:42:38.422Z,101504.79
2017-06-18T10:45:08.167Z,101497.63
2017-06-18T10:47:37.865Z,101497.34
2017-06-18T10:50:07.594Z,101504.19
2017-06-18T10:52:37.288Z,101506.35
2017-06-18T10:55:07.005Z,101501.45
2017-06-18T10:57:36.944Z,101490.44
2017-06-18T11:00:06.658Z,101485.05
2017-06-18T11:02:37.235Z,101490.17
2017-06-18T11:05:06.933Z,101491.41
2017-06-18T11:07:36.682Z,101480.10
2017-06-18T11:10:06.385Z,101484.86
2017-06-18T11:12:36.149Z,101480.34
2017-06-18T11:15:06.299Z,101482.23
2017-06-18T11:17:39.511Z,101475.80
2017-06-18T11:20:10.280Z,101481.69
2017-06-18T11:22:42.717Z,101482.45
2017-06-18T11:25:15.035Z,101473.55
2017-06-18T11:27:45.782Z,101467.80
2017-06-18T11:30:16.526Z,101466.28
2017-06-18T11:32:47.470Z,101467.73
2017-06-18T11:35:18.416Z,101463.70
2017-06-18T11:37:48.266Z,101461.19
2017-06-18T11:40:20.278Z,101454.06
2017-06-18T11:42:54.305Z,101456.60
2017-06-18T11:45:25.711Z,101450.61
2017-06-18T11:47:56.557Z,101451.08
2017-06-18T11:50:27.701Z,101453.38
2017-06-18T11:52:58.891Z,101450.76
2017-06-18T11:55:28.977Z,101442.59
2017-06-18T11:57:59.861Z,101441.33
2017-06-18T12:00:30.309Z,101447.97
2017-06-18T12:03:03.931Z,101441.50
2017-06-18T12:05:35.561Z,101443.48
2017-06-18T12:08:06.164Z,101444.73
2017-06-18T12:10:37.267Z,101441.25
2017-06-18T12:13:09.127Z,101436.61
2017-06-18T12:15:39.440Z,101432.03
2017-06-18T12:18:12.058Z,101438.13
2017-06-18T12:20:42.900Z,101434.19
2017-06-18T12:23:13.508Z,101431.22
2017-06-18T12:25:43.230Z,101424.50
2017-06-18T12:28:20.603Z,101425.67
2017-06-18T12:31:02.658Z,101429.44
2017-06-18T12:33:46.202Z,101424.34
2017-06-18T12:36:27.649Z,101427.96
2017-06-18T12:39:06.496Z,101421.91
2017-06-18T12:41:39.833Z,101412.96
2017-06-18T12:44:09.654Z,101415.37
2017-06-18T12:46:39.393Z,101406.44
2017-06-18T12:49:09.127Z,101403.55
2017-06-18T12:51:38.841Z,101411.53
2017-06-18T12:54:11.688Z,101411.45
2017-06-18T12:56:44.039Z,101407.31
2017-06-18T12:59:16.443Z,101407.22
2017-06-18T13:01:48.285Z,101395.88
2017-06-18T13:04:20.393Z,101391.00
2017-06-18T13:06:51.401Z,101390.69
2017-06-18T13:09:22.166Z,101397.59
2017-06-18T13:11:52.338Z,101394.63
2017-06-18T13:14:22.601Z,101395.08
2017-06-18T13:16:52.709Z,101395.59
2017-06-18T13:19:23.695Z,101388.44
2017-06-18T13:21:53.996Z,101388.40
2017-06-18T13:24:27.382Z,101387.31
2017-06-18T13:26:58.397Z,101381.75
2017-06-18T13:29:28.856Z,101375.18
2017-06-18T13:32:00.587Z,101381.73
2017-06-18T13:34:30.693Z,101381.19
2017-06-18T13:37:04.377Z,101383.31
2017-06-18T13:39:37.555Z,101381.84
2017-06-18T13:42:09.604Z,101385.91
2017-06-18T13:44:40.644Z,101378.90
2017-06-18T13:47:12.737Z,101377.60
2017-06-18T13:49:44.644Z,101372.27
2017-06-18T13:52:15.692Z,101371.45
2017-06-18T13:54:46.389Z,101371.03
2017-06-18T13:57:16.888Z,101372.55
2017-06-18T13:59:48.729Z,101369.55
2017-06-18T14:02:19.078Z,101373.31
2017-06-18T14:04:49.607Z,101363.77
2017-06-18T14:07:20.353Z,101365.23
2017-06-18T14:09:50.620Z,101365.68
2017-06-18T14:12:21.133Z,101371.05
2017-06-18T14:14:52.420Z,101371.88
2017-06-18T14:17:23.741Z,101367.12
2017-06-18T14:19:54.037Z,101365.37
2017-06-18T14:22:25.462Z,101361.42
2017-06-18T14:24:55.871Z,101362.97
2017-06-18T14:27:27.485Z,101358.79
2017-06-18T14:29:57.578Z,101358.80
2017-06-18T14:32:27.569Z,101354.12
2017-06-18T14:34:59.359Z,101353.88
2017-06-18T14:37:31.608Z,101347.61
2017-06-18T14:40:05.063Z,101353.52
2017-06-18T14:42:37.445Z,101345.92
2017-06-18T14:45:12.309Z,101348.90
2017-06-18T14:47:44.142Z,101353.58
2017-06-18T14:50:16.204Z,101355.98
2017-06-18T14:52:46.825Z,101350.72
2017-06-18T14:55:18.523Z,101353.27
2017-06-18T14:57:50.153Z,101353.59
2017-06-18T15:00:20.774Z,101355.42
2017-06-18T15:02:51.651Z,101347.09
2017-06-18T15:05:25.338Z,101346.83
2017-06-18T15:07:59.720Z,101344.14
2017-06-18T15:10:32.922Z,101348.60
2017-06-18T15:13:03.270Z,101339.33
2017-06-18T15:15:33.664Z,101341.28
2017-06-18T15:18:03.482Z,101344.28
2017-06-18T15:20:36.533Z,101344.68
2017-06-18T15:23:11.667Z,101344.86
2017-06-18T15:25:44.034Z,101340.67
2017-06-18T15:28:19.605Z,101340.00
2017-06-18T15:30:56.293Z,101335.95
2017-06-18T15:33:34.305Z,101345.83
2017-06-18T15:36:09.299Z,101342.36
2017-06-18T15:38:43.927Z,101341.47
2017-06-18T15:41:18.908Z,101344.95
2017-06-18T15:43:52.713Z,101344.00
2017-06-18T15:46:26.243Z,101335.30
2017-06-18T15:49:00.322Z,101338.14
2017-06-18T15:51:44.440Z,101345.16
2017-06-18T15:54:17.217Z,101344.27
2017-06-18T15:56:51.242Z,101340.96
2017-06-18T15:59:24.629Z,101340.09
2017-06-18T16:01:58.572Z,101338.74
2017-06-18T16:04:33.186Z,101336.38
2017-06-18T16:07:07.397Z,101333.90
2017-06-18T16:09:43.633Z,101333.02
2017-06-18T16:12:20.709Z,101339.17
2017-06-18T16:14:58.277Z,101332.16
2017-06-18T16:17:32.775Z,101333.00
2017-06-18T16:20:07.607Z,101325.09
2017-06-18T16:22:42.169Z,101335.48
2017-06-18T16:25:24.407Z,101329.13
2017-06-18T16:27:55.601Z,101338.57
2017-06-18T16:30:27.061Z,101332.31
2017-06-18T16:32:58.718Z,101334.70
2017-06-18T16:35:31.147Z,101328.09
2017-06-18T16:38:01.316Z,101327.48
2017-06-18T16:40:31.041Z,101326.02
2017-06-18T16:43:00.788Z,101331.61
2017-06-18T16:45:30.933Z,101327.67
2017-06-18T16:48:00.725Z,101322.42
2017-06-18T16:50:34.929Z,101326.45
2017-06-18T16:53:08.696Z,101331.00
2017-06-18T16:55:39.650Z,101325.88
2017-06-18T16:58:10.097Z,101319.98
2017-06-18T17:00:40.809Z,101316.91
2017-06-18T17:03:11.567Z,101328.69
2017-06-18T17:05:47.635Z,101321.91
2017-06-18T17:08:18.646Z,101328.11
2017-06-18T17:10:50.780Z,101326.55
2017-06-18T17:13:23.392Z,101327.38
2017-06-18T17:15:54.596Z,101330.18
2017-06-18T17:18:25.873Z,101323.09
2017-06-18T17:21:14.477Z,101324.13
2017-06-18T17:23:58.862Z,101321.08
2017-06-18T17:26:29.583Z,101321.47
2017-06-18T17:29:01.081Z,101320.05
2017-06-18T17:31:32.386Z,101319.30
2017-06-18T17:34:03.271Z,101319.61
2017-06-18T17:36:36.555Z,101316.06
2017-06-18T17:39:06.296Z,101316.78
2017-06-18T17:41:37.016Z,101317.25
2017-06-18T17:44:06.774Z,101316.41
2017-06-18T17:46:36.478Z,101313.66
2017-06-18T17:49:06.211Z,101318.75
2017-06-18T17:51:35.961Z,101315.28
2017-06-18T17:54:05.675Z,101323.14
2017-06-18T17:56:35.379Z,101318.80
2017-06-18T17:59:06.470Z,101320.58
2017-06-18T18:01:38.349Z,101317.85
2017-06-18T18:04:11.268Z,101316.08
2017-06-18T18:06:43.358Z,101310.22
2017-06-18T18:09:15.503Z,101316.14
2017-06-18T18:11:46.332Z,101309.87
2017-06-18T18:14:16.103Z,101307.55
2017-06-18T18:16:46.143Z,101313.34
2017-06-18T18:19:18.393Z,101309.59
2017-06-18T18:21:49.435Z,101306.11
2017-06-18T18:24:21.333Z,101305.36
2017-06-18T18:26:52.008Z,101306.70
2017-06-18T18:29:24.240Z,101315.39
2017-06-18T18:31:57.231Z,101316.41
2017-06-18T18:34:30.405Z,101312.78
2017-06-18T18:37:01.251Z,101317.11
2017-06-18T18:39:31.405Z,101314.48
2017-06-18T18:42:02.598Z,101317.00
2017-06-18T18:44:34.062Z,101311.47
2017-06-18T18:47:04.718Z,101308.41
2017-06-18T18:49:34.958Z,101307.02
2017-06-18T18:52:05.393Z,101305.34
2017-06-18T18:54:36.824Z,101303.84
2017-06-18T18:57:07.557Z,101305.72
2017-06-18T18:59:39.483Z,101303.94
2017-06-18T19:02:12.707Z,101306.14
2017-06-18T19:04:43.312Z,101304.19
2017-06-18T19:07:14.634Z,101308.22
2017-06-18T19:09:45.250Z,101298.01
2017-06-18T19:12:17.287Z,101307.05
2017-06-18T19:14:49.688Z,101313.12
2017-06-18T19:17:22.839Z,101310.15
2017-06-18T19:19:55.761Z,101304.28
2017-06-18T19:22:27.693Z,101306.09
2017-06-18T19:25:00.220Z,101302.52
2017-06-18T19:27:32.027Z,101304.97
2017-06-18T19:30:02.406Z,101312.50
2017-06-18T19:32:34.384Z,101313.84
2017-06-18T19:35:07.029Z,101316.53
2017-06-18T19:37:40.756Z,101306.12
2017-06-18T19:40:13.389Z,101314.57
2017-06-18T19:42:44.744Z,101320.30
2017-06-18T19:45:17.231Z,101319.72
2017-06-18T19:47:50.316Z,101322.08
2017-06-18T19:50:22.477Z,101329.14
2017-06-18T19:52:54.118Z,101331.51
2017-06-18T19:55:26.230Z,101332.52
2017-06-18T19:57:58.728Z,101331.63
2017-06-18T20:00:32.570Z,101333.06
2017-06-18T20:03:04.136Z,101336.11
2017-06-18T20:05:36.622Z,101336.76
2017-06-18T20:08:10.303Z,101336.64
2017-06-18T20:10:44.028Z,101341.25
2017-06-18T20:13:17.425Z,101336.69
2017-06-18T20:15:49.988Z,101338.55
2017-06-18T20:18:21.003Z,101341.42
2017-06-18T20:20:52.875Z,101344.96
2017-06-18T20:23:24.811Z,101344.42
2017-06-18T20:25:56.171Z,101343.94
2017-06-18T20:28:25.898Z,101346.04
2017-06-18T20:30:55.643Z,101346.23
2017-06-18T20:33:25.635Z,101350.15
2017-06-18T20:35:55.392Z,101350.05
2017-06-18T20:38:25.118Z,101349.57
2017-06-18T20:40:54.811Z,101353.48
2017-06-18T20:43:24.589Z,101351.08
2017-06-18T20:45:54.301Z,101350.73
2017-06-18T20:48:23.992Z,101347.64
2017-06-18T20:50:53.727Z,101351.59
2017-06-18T20:53:23.447Z,101356.07
2017-06-18T20:55:53.178Z,101355.18
2017-06-18T20:58:22.882Z,101355.44
2017-06-18T21:00:52.635Z,101358.91
2017-06-18T21:03:22.359Z,101355.30
2017-06-18T21:05:59.784Z,101350.78
2017-06-18T21:08:29.606Z,101358.66
2017-06-18T21:10:59.347Z,101358.98
2017-06-18T21:13:29.038Z,101355.49
2017-06-18T21:15:58.764Z,101355.87
2017-06-18T21:18:28.486Z,101353.08
2017-06-18T21:20:58.198Z,101348.47
2017-06-18T21:23:27.943Z,101343.09
2017-06-18T21:25:57.684Z,101345.24
2017-06-18T21:28:27.482Z,101348.27
2017-06-18T21:30:57.216Z,101346.80
2017-06-18T21:33:26.971Z,101349.50
2017-06-18T21:35:56.666Z,101346.73
2017-06-18T21:38:26.386Z,101348.67
2017-06-18T21:40:56.219Z,101347.19
2017-06-18T21:43:25.944Z,101350.80
2017-06-18T21:45:55.760Z,101346.17
2017-06-18T21:48:25.504Z,101353.53
2017-06-18T21:50:55.282Z,101348.39
2017-06-18T21:53:24.983Z,101350.38
2017-06-18T21:55:54.727Z,101351.88
2017-06-18T21:58:24.466Z,101356.41
2017-06-18T22:00:54.182Z,101357.84
2017-06-18T22:03:23.935Z,101356.69
2017-06-18T22:05:53.658Z,101353.05
2017-06-18T22:08:26.820Z,101356.22
2017-06-18T22:10:57.439Z,101359.83
2017-06-18T22:13:27.234Z,101358.64
2017-06-18T22:15:56.974Z,101361.98
2017-06-18T22:18:26.682Z,101359.88
2017-06-18T22:20:56.437Z,101361.45
2017-06-18T22:23:26.182Z,101366.19
2017-06-18T22:25:55.959Z,101354.77
2017-06-18T22:28:25.725Z,101356.28
2017-06-18T22:30:55.474Z,101353.58
2017-06-18T22:33:25.189Z,101354.25
2017-06-18T22:35:54.911Z,101348.66
2017-06-18T22:38:24.654Z,101350.77
2017-06-18T22:40:54.370Z,101350.39
2017-06-18T22:43:24.090Z,101351.13
2017-06-18T22:45:53.808Z,101348.83
2017-06-18T22:48:23.586Z,101346.20
2017-06-18T22:50:53.321Z,101343.17
2017-06-18T22:53:23.078Z,101340.17
2017-06-18T22:55:53.607Z,101347.06
2017-06-18T22:58:23.358Z,101341.75
2017-06-18T23:00:53.111Z,101353.02
2017-06-18T23:03:22.854Z,101343.94
2017-06-18T23:05:52.606Z,101346.63
2017-06-18T23:08:22.319Z,101345.11
2017-06-18T23:10:53.347Z,101345.69
2017-06-18T23:13:23.067Z,101351.83
2017-06-18T23:15:52.842Z,101345.46
2017-06-18T23:18:22.605Z,101346.39
2017-06-18T23:20:52.329Z,101345.33
2017-06-18T23:23:22.067Z,101345.06
2017-06-18T23:25:51.810Z,101341.47
2017-06-18T23:28:21.590Z,101343.88
2017-06-18T23:30:51.311Z,101343.30
2017-06-18T23:33:21.067Z,101337.39
2017-06-18T23:35:50.783Z,101337.42
2017-06-18T23:38:20.494Z,101343.98
2017-06-18T23:40:50.233Z,101344.14
2017-06-18T23:43:19.936Z,101340.25
2017-06-18T23:45:49.666Z,101338.11
2017-06-18T23:48:19.385Z,101341.02
2017-06-18T23:50:49.135Z,101331.73
2017-06-18T23:53:18.870Z,101329.51
2017-06-18T23:55:48.583Z,101331.66
2017-06-18T23:58:18.374Z,101339.17
